createdAt,value
2023-01-22T00:02:58.329Z,97299.97
2023-01-22T00:08:19.992Z,97299.31
2023-01-22T00:13:41.232Z,97302.97
2023-01-22T00:19:02.613Z,97299.00
2023-01-22T00:24:23.552Z,97306.97
2023-01-22T00:29:44.230Z,97303.13
2023-01-22T00:35:05.330Z,97310.03
2023-01-22T00:40:26.133Z,97314.03
2023-01-22T00:45:46.849Z,97325.19
2023-01-22T00:51:13.111Z,97327.50
2023-01-22T00:56:34.102Z,97332.47
2023-01-22T01:01:54.867Z,97325.16
2023-01-22T01:07:15.493Z,97337.13
2023-01-22T01:12:38.330Z,97339.75
2023-01-22T01:17:58.904Z,97336.94
2023-01-22T01:23:19.678Z,97343.53
2023-01-22T01:28:41.617Z,97351.19
2023-01-22T01:34:03.159Z,97351.13
2023-01-22T01:39:23.976Z,97352.78
2023-01-22T01:44:44.614Z,97347.75
2023-01-22T01:50:06.055Z,97356.72
2023-01-22T01:55:29.824Z,97353.38
2023-01-22T02:00:54.005Z,97353.50
2023-01-22T02:06:17.332Z,97365.03
2023-01-22T02:11:39.597Z,97364.31
2023-01-22T02:17:13.558Z,97365.69
2023-01-22T02:22:37.930Z,97369.31
2023-01-22T02:27:58.625Z,97375.03
2023-01-22T02:33:19.637Z,97373.59
2023-01-22T02:38:40.671Z,97375.88
2023-01-22T02:44:02.093Z,97390.38
2023-01-22T02:49:23.005Z,97391.69
2023-01-22T02:54:44.525Z,97402.69
2023-01-22T03:00:06.821Z,97396.38
2023-01-22T03:05:27.937Z,97393.31
2023-01-22T03:10:49.658Z,97404.13
2023-01-22T03:16:29.356Z,97402.91
2023-01-22T03:21:50.117Z,97404.50
2023-01-22T03:27:10.979Z,97407.63
2023-01-22T03:32:32.058Z,97406.63
2023-01-22T03:37:53.286Z,97413.75
2023-01-22T03:43:14.400Z,97422.63
2023-01-22T03:48:35.133Z,97420.13
2023-01-22T03:53:55.926Z,97424.38
2023-01-22T03:59:18.834Z,97419.19
2023-01-22T04:04:40.039Z,97420.19
2023-01-22T04:10:02.242Z,97416.41
2023-01-22T04:15:24.496Z,97412.47
2023-01-22T04:20:52.155Z,97415.59
2023-01-22T04:26:25.050Z,97416.69
2023-01-22T04:31:47.815Z,97417.16
2023-01-22T04:37:38.265Z,97419.38
2023-01-22T04:43:07.577Z,97431.31
2023-01-22T04:48:28.775Z,97420.56
2023-01-22T04:53:50.515Z,97421.41
2023-01-22T04:59:11.344Z,97424.88
2023-01-22T05:04:33.207Z,97437.69
2023-01-22T05:09:54.156Z,97444.06
2023-01-22T05:15:24.162Z,97447.69
2023-01-22T05:20:47.653Z,97453.78
2023-01-22T05:26:10.033Z,97456.88
2023-01-22T05:31:35.469Z,97458.06
2023-01-22T05:36:58.620Z,97461.38
2023-01-22T05:42:21.607Z,97462.50
2023-01-22T05:47:44.373Z,97468.22
2023-01-22T05:53:17.945Z,97470.50
2023-01-22T05:58:38.657Z,97460.31
2023-01-22T06:04:00.411Z,97470.88
2023-01-22T06:09:21.590Z,97470.88
2023-01-22T06:14:42.579Z,97470.22
2023-01-22T06:20:06.335Z,97485.13
2023-01-22T06:25:27.099Z,97491.31
2023-01-22T06:31:08.025Z,97502.25
2023-01-22T06:36:30.310Z,97501.91
2023-01-22T06:41:52.515Z,97512.59
2023-01-22T06:47:13.376Z,97524.13
2023-01-22T06:52:34.213Z,97524.44
2023-01-22T06:57:55.877Z,97517.50
2023-01-22T07:03:16.873Z,97517.13
2023-01-22T07:08:37.739Z,97505.09
2023-01-22T07:13:58.743Z,97505.72
2023-01-22T07:19:19.529Z,97512.19
2023-01-22T07:24:40.187Z,97526.41
2023-01-22T07:30:01.117Z,97532.81
2023-01-22T07:35:22.012Z,97542.91
2023-01-22T07:40:42.730Z,97534.28
2023-01-22T07:46:05.315Z,97535.28
2023-01-22T07:51:26.412Z,97549.88
2023-01-22T07:56:47.787Z,97559.28
2023-01-22T08:02:15.569Z,97559.78
2023-01-22T08:07:36.601Z,97559.59
2023-01-22T08:12:57.268Z,97571.22
2023-01-22T08:18:20.392Z,97551.16
2023-01-22T08:23:46.097Z,97561.56
2023-01-22T08:29:08.796Z,97560.84
2023-01-22T08:34:29.564Z,97587.91
2023-01-22T08:39:50.689Z,97599.47
2023-01-22T08:45:11.654Z,97597.72
2023-01-22T08:50:32.536Z,97605.69
2023-01-22T08:55:53.372Z,97611.16
2023-01-22T09:01:16.832Z,97621.66
2023-01-22T09:06:40.004Z,97629.81
2023-01-22T09:12:01.025Z,97619.84
2023-01-22T09:17:21.667Z,97621.34
2023-01-22T09:22:45.402Z,97627.59
2023-01-22T09:28:08.838Z,97615.34
2023-01-22T09:33:29.784Z,97636.56
2023-01-22T09:38:51.311Z,97618.22
2023-01-22T09:44:12.164Z,97630.25
2023-01-22T09:49:53.008Z,97621.66
2023-01-22T09:55:17.264Z,97628.38
2023-01-22T10:00:39.697Z,97632.63
2023-01-22T10:06:06.627Z,97633.31
2023-01-22T10:11:27.314Z,97636.16
2023-01-22T10:16:49.482Z,97631.50
2023-01-22T10:22:22.513Z,97617.78
2023-01-22T10:27:45.876Z,97619.16
2023-01-22T10:33:07.061Z,97624.41
2023-01-22T10:38:30.901Z,97611.19
2023-01-22T10:43:51.853Z,97605.16
2023-01-22T10:49:22.422Z,97606.72
2023-01-22T10:54:48.240Z,97603.28
2023-01-22T11:00:15.999Z,97603.47
2023-01-22T11:05:37.499Z,97587.41
2023-01-22T11:11:06.731Z,97593.22
2023-01-22T11:16:32.165Z,97601.88
2023-01-22T11:21:57.585Z,97599.81
2023-01-22T11:27:34.188Z,97588.47
2023-01-22T11:33:13.296Z,97595.00
2023-01-22T11:39:11.741Z,97597.69
2023-01-22T11:44:47.911Z,97592.59
2023-01-22T11:50:30.393Z,97591.78
2023-01-22T11:56:16.437Z,97596.38
2023-01-22T12:01:52.535Z,97602.69
2023-01-22T12:07:32.321Z,97611.22
2023-01-22T12:13:13.216Z,97603.25
2023-01-22T12:18:52.716Z,97606.31
2023-01-22T12:24:21.997Z,97608.34
2023-01-22T12:29:52.587Z,97604.94
2023-01-22T12:35:19.324Z,97605.44
2023-01-22T12:40:46.469Z,97611.41
2023-01-22T12:46:26.069Z,97608.91
2023-01-22T12:51:49.922Z,97602.09
2023-01-22T12:57:15.568Z,97602.81
2023-01-22T13:02:38.904Z,97611.00
2023-01-22T13:08:06.871Z,97609.50
2023-01-22T13:13:35.633Z,97615.75
2023-01-22T13:18:59.834Z,97618.28
2023-01-22T13:24:21.799Z,97609.31
2023-01-22T13:29:42.734Z,97624.81
2023-01-22T13:35:05.951Z,97619.34
2023-01-22T13:40:31.561Z,97632.97
2023-01-22T13:45:57.023Z,97636.72
2023-01-22T13:51:21.780Z,97629.00
2023-01-22T13:56:42.521Z,97625.84
2023-01-22T14:02:24.520Z,97620.75
2023-01-22T14:07:45.107Z,97637.31
2023-01-22T14:13:11.248Z,97636.91
2023-01-22T14:18:32.380Z,97638.94
2023-01-22T14:23:53.075Z,97643.88
2023-01-22T14:29:13.883Z,97656.44
2023-01-22T14:34:34.434Z,97661.53
2023-01-22T14:39:55.062Z,97670.19
2023-01-22T14:45:17.358Z,97680.56
2023-01-22T14:50:39.729Z,97686.22
2023-01-22T14:56:01.085Z,97689.22
2023-01-22T15:01:22.915Z,97691.78
2023-01-22T15:06:44.428Z,97698.50
2023-01-22T15:12:05.605Z,97704.09
2023-01-22T15:17:26.391Z,97708.31
2023-01-22T15:22:48.408Z,97708.97
2023-01-22T15:28:09.566Z,97710.75
2023-01-22T15:33:30.394Z,97705.50
2023-01-22T15:38:51.114Z,97712.56
2023-01-22T15:44:13.486Z,97718.25
2023-01-22T15:49:34.982Z,97722.88
2023-01-22T15:54:57.749Z,97724.03
2023-01-22T16:00:19.101Z,97734.03
2023-01-22T16:05:39.742Z,97737.91
2023-01-22T16:11:00.699Z,97731.41
2023-01-22T16:16:27.773Z,97751.28
2023-01-22T16:21:48.883Z,97748.88
2023-01-22T16:27:09.734Z,97753.81
2023-01-22T16:32:31.476Z,97757.91
2023-01-22T16:37:52.357Z,97770.50
2023-01-22T16:43:12.965Z,97769.69
2023-01-22T16:48:33.683Z,97767.91
2023-01-22T16:53:55.518Z,97765.94
2023-01-22T16:59:16.976Z,97781.19
2023-01-22T17:04:37.830Z,97785.28
2023-01-22T17:09:59.031Z,97800.69
2023-01-22T17:15:20.664Z,97801.38
2023-01-22T17:20:50.893Z,97817.31
2023-01-22T17:26:19.170Z,97827.13
2023-01-22T17:31:40.351Z,97824.75
2023-01-22T17:37:01.071Z,97836.88
2023-01-22T17:42:21.716Z,97842.84
2023-01-22T17:47:44.300Z,97850.69
2023-01-22T17:53:05.112Z,97856.97
2023-01-22T17:58:25.902Z,97862.22
2023-01-22T18:03:47.786Z,97868.28
2023-01-22T18:09:10.112Z,97877.81
2023-01-22T18:14:36.678Z,97873.63
2023-01-22T18:19:57.557Z,97890.41
2023-01-22T18:25:18.455Z,97887.22
2023-01-22T18:30:39.981Z,97889.28
2023-01-22T18:36:01.125Z,97881.75
2023-01-22T18:41:24.409Z,97881.69
2023-01-22T18:46:48.284Z,97889.22
2023-01-22T18:52:09.246Z,97896.25
2023-01-22T18:57:30.284Z,97897.94
2023-01-22T19:02:55.968Z,97903.88
2023-01-22T19:08:17.983Z,97911.09
2023-01-22T19:13:40.345Z,97912.41
2023-01-22T19:19:07.777Z,97913.34
2023-01-22T19:24:28.786Z,97924.63
2023-01-22T19:29:51.223Z,97928.03
2023-01-22T19:35:13.486Z,97927.31
2023-01-22T19:40:34.370Z,97934.75
2023-01-22T19:45:56.173Z,97935.72
2023-01-22T19:51:17.794Z,97942.38
2023-01-22T19:56:41.588Z,97952.94
2023-01-22T20:02:02.622Z,97958.13
2023-01-22T20:07:25.181Z,97960.78
2023-01-22T20:12:50.234Z,97975.84
2023-01-22T20:18:11.396Z,97985.00
2023-01-22T20:23:32.201Z,97993.38
2023-01-22T20:28:53.057Z,97987.00
2023-01-22T20:34:13.750Z,97995.59
2023-01-22T20:39:34.647Z,97993.97
2023-01-22T20:44:58.323Z,97994.47
2023-01-22T20:50:19.420Z,98017.66
2023-01-22T20:55:40.190Z,98023.53
2023-01-22T21:01:15.983Z,98022.81
2023-01-22T21:06:39.389Z,98027.13
2023-01-22T21:12:00.645Z,98036.94
2023-01-22T21:17:22.098Z,98044.53
2023-01-22T21:22:43.079Z,98051.38
2023-01-22T21:28:04.471Z,98050.63
2023-01-22T21:33:25.834Z,98052.31
2023-01-22T21:38:51.887Z,98048.72
2023-01-22T21:44:35.951Z,98049.63
2023-01-22T21:49:56.701Z,98050.00
2023-01-22T21:55:17.346Z,98055.56
2023-01-22T22:00:37.942Z,98070.16
2023-01-22T22:06:02.121Z,98076.28
2023-01-22T22:11:24.907Z,98085.19
2023-01-22T22:16:46.487Z,98072.06
2023-01-22T22:22:07.427Z,98066.59
2023-01-22T22:27:28.109Z,98085.88
2023-01-22T22:32:49.515Z,98094.25
2023-01-22T22:38:10.181Z,98091.88
2023-01-22T22:43:44.392Z,98086.19
2023-01-22T22:49:06.241Z,98086.31
2023-01-22T22:54:27.545Z,98084.53
2023-01-22T22:59:48.541Z,98100.81
2023-01-22T23:05:09.394Z,98105.56
2023-01-22T23:10:30.676Z,98099.56
2023-01-22T23:15:51.286Z,98111.53
2023-01-22T23:21:17.896Z,98114.06
2023-01-22T23:26:40.348Z,98124.47
2023-01-22T23:32:01.498Z,98124.81
2023-01-22T23:37:22.616Z,98124.09
2023-01-22T23:42:48.074Z,98122.06
2023-01-22T23:48:08.677Z,98130.31
2023-01-22T23:53:29.545Z,98132.28
2023-01-22T23:58:54.392Z,98150.88
